sensor_id;sensor_type;location;lat;lon;timestamp;temperature;humidity
15262;DHT22;7733;51.554;13.590;2023-05-20T00:00:28;13.70;99.90
15262;DHT22;7733;51.554;13.590;2023-05-20T00:02:54;13.70;99.90
15262;DHT22;7733;51.554;13.590;2023-05-20T00:05:20;13.70;99.90
15262;DHT22;7733;51.554;13.590;2023-05-20T00:07:45;13.60;99.90
15262;DHT22;7733;51.554;13.590;2023-05-20T00:10:11;13.60;99.90
15262;DHT22;7733;51.554;13.590;2023-05-20T00:12:37;13.70;99.90
15262;DHT22;7733;51.554;13.590;2023-05-20T00:15:04;13.60;99.90
15262;DHT22;7733;51.554;13.590;2023-05-20T00:17:31;13.50;99.90
15262;DHT22;7733;51.554;13.590;2023-05-20T00:19:56;13.60;99.90
15262;DHT22;7733;51.554;13.590;2023-05-20T00:22:24;13.60;99.90
15262;DHT22;7733;51.554;13.590;2023-05-20T00:24:50;13.60;99.90
15262;DHT22;7733;51.554;13.590;2023-05-20T00:27:16;13.50;99.90
15262;DHT22;7733;51.554;13.590;2023-05-20T00:29:41;13.50;99.90
15262;DHT22;7733;51.554;13.590;2023-05-20T00:32:07;13.50;99.90
15262;DHT22;7733;51.554;13.590;2023-05-20T00:34:33;13.50;99.90
15262;DHT22;7733;51.554;13.590;2023-05-20T00:36:59;13.50;99.90
15262;DHT22;7733;51.554;13.590;2023-05-20T00:39:24;13.50;99.90
15262;DHT22;7733;51.554;13.590;2023-05-20T00:41:51;13.50;99.90
15262;DHT22;7733;51.554;13.590;2023-05-20T00:44:16;13.50;99.90
15262;DHT22;7733;51.554;13.590;2023-05-20T00:46:44;13.40;99.90
15262;DHT22;7733;51.554;13.590;2023-05-20T00:49:12;13.40;99.90
15262;DHT22;7733;51.554;13.590;2023-05-20T00:51:38;13.50;99.90
15262;DHT22;7733;51.554;13.590;2023-05-20T00:54:04;13.40;99.90
15262;DHT22;7733;51.554;13.590;2023-05-20T00:56:30;13.40;99.90
15262;DHT22;7733;51.554;13.590;2023-05-20T00:58:56;13.40;99.90
15262;DHT22;7733;51.554;13.590;2023-05-20T01:01:22;13.40;99.90
15262;DHT22;7733;51.554;13.590;2023-05-20T01:03:48;13.40;99.90
15262;DHT22;7733;51.554;13.590;2023-05-20T01:06:14;13.40;99.90
15262;DHT22;7733;51.554;13.590;2023-05-20T01:08:40;13.30;99.90
15262;DHT22;7733;51.554;13.590;2023-05-20T01:11:10;13.30;99.90
15262;DHT22;7733;51.554;13.590;2023-05-20T01:14:01;13.20;99.90
15262;DHT22;7733;51.554;13.590;2023-05-20T01:16:31;13.20;99.90
15262;DHT22;7733;51.554;13.590;2023-05-20T01:19:01;13.20;99.90
15262;DHT22;7733;51.554;13.590;2023-05-20T01:21:31;13.20;99.90
15262;DHT22;7733;51.554;13.590;2023-05-20T01:23:58;13.20;99.90
15262;DHT22;7733;51.554;13.590;2023-05-20T01:26:26;13.20;99.90
15262;DHT22;7733;51.554;13.590;2023-05-20T01:28:52;13.00;99.90
15262;DHT22;7733;51.554;13.590;2023-05-20T01:31:23;13.10;99.90
15262;DHT22;7733;51.554;13.590;2023-05-20T01:33:55;13.00;99.90
15262;DHT22;7733;51.554;13.590;2023-05-20T01:36:22;13.00;99.90
15262;DHT22;7733;51.554;13.590;2023-05-20T01:38:52;13.00;99.90
15262;DHT22;7733;51.554;13.590;2023-05-20T01:41:20;13.00;99.90
15262;DHT22;7733;51.554;13.590;2023-05-20T01:43:48;13.10;99.90
15262;DHT22;7733;51.554;13.590;2023-05-20T01:46:14;13.00;99.90
15262;DHT22;7733;51.554;13.590;2023-05-20T01:48:40;13.00;99.90
15262;DHT22;7733;51.554;13.590;2023-05-20T01:51:06;13.00;99.90
15262;DHT22;7733;51.554;13.590;2023-05-20T01:53:32;13.00;99.90
15262;DHT22;7733;51.554;13.590;2023-05-20T01:55:58;13.10;99.90
15262;DHT22;7733;51.554;13.590;2023-05-20T01:58:24;12.90;99.90
15262;DHT22;7733;51.554;13.590;2023-05-20T02:00:49;12.90;99.90
15262;DHT22;7733;51.554;13.590;2023-05-20T02:03:15;12.90;99.90
15262;DHT22;7733;51.554;13.590;2023-05-20T02:05:41;12.90;99.90
15262;DHT22;7733;51.554;13.590;2023-05-20T02:08:08;12.90;99.90
15262;DHT22;7733;51.554;13.590;2023-05-20T02:10:33;13.00;99.90
15262;DHT22;7733;51.554;13.590;2023-05-20T02:12:59;13.00;99.90
15262;DHT22;7733;51.554;13.590;2023-05-20T02:15:25;12.90;99.90
15262;DHT22;7733;51.554;13.590;2023-05-20T02:17:51;12.90;99.90
15262;DHT22;7733;51.554;13.590;2023-05-20T02:20:16;13.00;99.90
15262;DHT22;7733;51.554;13.590;2023-05-20T02:22:42;12.90;99.90
15262;DHT22;7733;51.554;13.590;2023-05-20T02:25:08;12.90;99.90
15262;DHT22;7733;51.554;13.590;2023-05-20T02:27:34;12.90;99.90
15262;DHT22;7733;51.554;13.590;2023-05-20T02:30:00;13.00;99.90
15262;DHT22;7733;51.554;13.590;2023-05-20T02:32:26;13.00;99.90
15262;DHT22;7733;51.554;13.590;2023-05-20T02:34:54;12.90;99.90
15262;DHT22;7733;51.554;13.590;2023-05-20T02:37:20;12.90;99.90
15262;DHT22;7733;51.554;13.590;2023-05-20T02:39:45;12.90;99.90
15262;DHT22;7733;51.554;13.590;2023-05-20T02:42:11;12.90;99.90
15262;DHT22;7733;51.554;13.590;2023-05-20T02:44:37;12.90;99.90
15262;DHT22;7733;51.554;13.590;2023-05-20T02:47:03;12.90;99.90
15262;DHT22;7733;51.554;13.590;2023-05-20T02:49:28;12.80;99.90
15262;DHT22;7733;51.554;13.590;2023-05-20T02:51:54;12.90;99.90
15262;DHT22;7733;51.554;13.590;2023-05-20T02:54:20;12.90;99.90
15262;DHT22;7733;51.554;13.590;2023-05-20T02:56:46;12.80;99.90
15262;DHT22;7733;51.554;13.590;2023-05-20T02:59:12;12.90;99.90
15262;DHT22;7733;51.554;13.590;2023-05-20T03:01:38;12.80;99.90
15262;DHT22;7733;51.554;13.590;2023-05-20T03:04:04;12.80;99.90
15262;DHT22;7733;51.554;13.590;2023-05-20T03:06:30;12.80;99.90
15262;DHT22;7733;51.554;13.590;2023-05-20T03:08:56;12.80;99.90
15262;DHT22;7733;51.554;13.590;2023-05-20T03:11:23;12.80;99.90
15262;DHT22;7733;51.554;13.590;2023-05-20T03:13:48;12.90;99.90
15262;DHT22;7733;51.554;13.590;2023-05-20T03:16:14;13.00;99.90
15262;DHT22;7733;51.554;13.590;2023-05-20T03:18:41;12.90;99.90
15262;DHT22;7733;51.554;13.590;2023-05-20T03:21:07;12.90;99.90
15262;DHT22;7733;51.554;13.590;2023-05-20T03:23:33;13.00;99.90
15262;DHT22;7733;51.554;13.590;2023-05-20T03:25:59;13.00;99.90
15262;DHT22;7733;51.554;13.590;2023-05-20T03:28:26;13.00;99.90
15262;DHT22;7733;51.554;13.590;2023-05-20T03:30:51;12.90;99.90
15262;DHT22;7733;51.554;13.590;2023-05-20T03:33:17;12.90;99.90
15262;DHT22;7733;51.554;13.590;2023-05-20T03:35:43;12.90;99.90
15262;DHT22;7733;51.554;13.590;2023-05-20T03:38:09;12.80;99.90
15262;DHT22;7733;51.554;13.590;2023-05-20T03:40:34;12.80;99.90
15262;DHT22;7733;51.554;13.590;2023-05-20T03:43:00;12.80;99.90
15262;DHT22;7733;51.554;13.590;2023-05-20T03:45:26;12.80;99.90
15262;DHT22;7733;51.554;13.590;2023-05-20T03:47:51;12.80;99.90
15262;DHT22;7733;51.554;13.590;2023-05-20T03:50:17;12.80;99.90
15262;DHT22;7733;51.554;13.590;2023-05-20T03:52:43;12.80;99.90
15262;DHT22;7733;51.554;13.590;2023-05-20T03:55:09;12.90;99.90
15262;DHT22;7733;51.554;13.590;2023-05-20T03:57:35;12.90;99.90
15262;DHT22;7733;51.554;13.590;2023-05-20T04:00:01;12.90;99.90
15262;DHT22;7733;51.554;13.590;2023-05-20T04:02:33;12.80;99.90
15262;DHT22;7733;51.554;13.590;2023-05-20T04:04:58;12.90;99.90
15262;DHT22;7733;51.554;13.590;2023-05-20T04:07:25;12.80;99.90
15262;DHT22;7733;51.554;13.590;2023-05-20T04:09:51;12.90;99.90
15262;DHT22;7733;51.554;13.590;2023-05-20T04:12:16;12.90;99.90
15262;DHT22;7733;51.554;13.590;2023-05-20T04:14:43;12.90;99.90
15262;DHT22;7733;51.554;13.590;2023-05-20T04:17:09;12.80;99.90
15262;DHT22;7733;51.554;13.590;2023-05-20T04:19:35;12.90;99.90
15262;DHT22;7733;51.554;13.590;2023-05-20T04:22:03;12.90;99.90
15262;DHT22;7733;51.554;13.590;2023-05-20T04:24:29;13.00;99.90
15262;DHT22;7733;51.554;13.590;2023-05-20T04:26:54;13.00;99.90
15262;DHT22;7733;51.554;13.590;2023-05-20T04:29:20;13.00;99.90
15262;DHT22;7733;51.554;13.590;2023-05-20T04:31:46;13.00;99.90
15262;DHT22;7733;51.554;13.590;2023-05-20T04:34:12;13.00;99.90
15262;DHT22;7733;51.554;13.590;2023-05-20T04:36:39;13.00;99.90
15262;DHT22;7733;51.554;13.590;2023-05-20T04:39:05;13.10;99.90
15262;DHT22;7733;51.554;13.590;2023-05-20T04:41:32;13.10;99.90
15262;DHT22;7733;51.554;13.590;2023-05-20T04:43:58;13.10;99.90
15262;DHT22;7733;51.554;13.590;2023-05-20T04:46:26;13.10;99.90
15262;DHT22;7733;51.554;13.590;2023-05-20T04:48:52;13.20;99.90
15262;DHT22;7733;51.554;13.590;2023-05-20T04:51:18;13.20;99.90
15262;DHT22;7733;51.554;13.590;2023-05-20T04:53:44;13.30;99.90
15262;DHT22;7733;51.554;13.590;2023-05-20T04:56:10;13.30;99.90
15262;DHT22;7733;51.554;13.590;2023-05-20T04:58:37;13.40;99.90
15262;DHT22;7733;51.554;13.590;2023-05-20T05:01:04;13.40;99.90
15262;DHT22;7733;51.554;13.590;2023-05-20T05:03:30;13.30;99.90
15262;DHT22;7733;51.554;13.590;2023-05-20T05:05:56;13.30;99.90
15262;DHT22;7733;51.554;13.590;2023-05-20T05:08:23;13.20;99.90
15262;DHT22;7733;51.554;13.590;2023-05-20T05:10:49;13.30;99.90
15262;DHT22;7733;51.554;13.590;2023-05-20T05:13:15;13.40;99.90
15262;DHT22;7733;51.554;13.590;2023-05-20T05:15:41;13.40;99.90
15262;DHT22;7733;51.554;13.590;2023-05-20T05:18:06;13.30;99.90
15262;DHT22;7733;51.554;13.590;2023-05-20T05:20:32;13.30;99.90
15262;DHT22;7733;51.554;13.590;2023-05-20T05:22:58;13.40;99.90
15262;DHT22;7733;51.554;13.590;2023-05-20T05:25:23;13.40;99.90
15262;DHT22;7733;51.554;13.590;2023-05-20T05:27:49;13.50;99.90
15262;DHT22;7733;51.554;13.590;2023-05-20T05:30:15;13.50;99.90
15262;DHT22;7733;51.554;13.590;2023-05-20T05:32:41;13.50;99.90
15262;DHT22;7733;51.554;13.590;2023-05-20T05:35:07;13.60;99.90
15262;DHT22;7733;51.554;13.590;2023-05-20T05:37:33;13.60;99.90
15262;DHT22;7733;51.554;13.590;2023-05-20T05:39:59;13.40;99.90
15262;DHT22;7733;51.554;13.590;2023-05-20T05:42:25;13.40;99.90
15262;DHT22;7733;51.554;13.590;2023-05-20T05:44:50;13.60;99.90
15262;DHT22;7733;51.554;13.590;2023-05-20T05:47:16;13.60;99.90
15262;DHT22;7733;51.554;13.590;2023-05-20T05:49:42;13.60;99.90
15262;DHT22;7733;51.554;13.590;2023-05-20T05:52:07;13.80;99.90
15262;DHT22;7733;51.554;13.590;2023-05-20T05:54:33;13.90;99.90
15262;DHT22;7733;51.554;13.590;2023-05-20T05:56:59;13.80;99.90
15262;DHT22;7733;51.554;13.590;2023-05-20T05:59:25;13.80;99.90
15262;DHT22;7733;51.554;13.590;2023-05-20T06:01:50;13.90;99.90
15262;DHT22;7733;51.554;13.590;2023-05-20T06:04:16;13.90;99.90
15262;DHT22;7733;51.554;13.590;2023-05-20T06:06:42;13.80;99.90
15262;DHT22;7733;51.554;13.590;2023-05-20T06:09:08;13.80;99.90
15262;DHT22;7733;51.554;13.590;2023-05-20T06:11:33;13.80;99.90
15262;DHT22;7733;51.554;13.590;2023-05-20T06:14:00;13.80;99.90
15262;DHT22;7733;51.554;13.590;2023-05-20T06:16:26;13.80;99.90
15262;DHT22;7733;51.554;13.590;2023-05-20T06:18:52;13.80;99.90
15262;DHT22;7733;51.554;13.590;2023-05-20T06:21:21;13.90;99.90
15262;DHT22;7733;51.554;13.590;2023-05-20T06:23:48;13.80;99.90
15262;DHT22;7733;51.554;13.590;2023-05-20T06:26:14;13.90;99.90
15262;DHT22;7733;51.554;13.590;2023-05-20T06:28:40;14.00;99.90
15262;DHT22;7733;51.554;13.590;2023-05-20T06:31:06;14.00;99.90
15262;DHT22;7733;51.554;13.590;2023-05-20T06:33:32;14.00;99.90
15262;DHT22;7733;51.554;13.590;2023-05-20T06:35:57;14.00;99.90
15262;DHT22;7733;51.554;13.590;2023-05-20T06:38:23;14.10;99.90
15262;DHT22;7733;51.554;13.590;2023-05-20T06:40:49;14.20;99.90
15262;DHT22;7733;51.554;13.590;2023-05-20T06:43:16;14.10;99.90
15262;DHT22;7733;51.554;13.590;2023-05-20T06:45:42;14.00;99.90
15262;DHT22;7733;51.554;13.590;2023-05-20T06:48:08;14.10;99.90
15262;DHT22;7733;51.554;13.590;2023-05-20T06:50:34;14.20;99.90
15262;DHT22;7733;51.554;13.590;2023-05-20T06:53:00;14.20;99.90
15262;DHT22;7733;51.554;13.590;2023-05-20T06:55:26;14.20;99.90
15262;DHT22;7733;51.554;13.590;2023-05-20T06:57:52;14.20;99.90
15262;DHT22;7733;51.554;13.590;2023-05-20T07:00:18;14.20;99.90
15262;DHT22;7733;51.554;13.590;2023-05-20T07:02:44;14.10;99.90
15262;DHT22;7733;51.554;13.590;2023-05-20T07:05:11;14.10;99.90
15262;DHT22;7733;51.554;13.590;2023-05-20T07:07:37;14.20;99.90
15262;DHT22;7733;51.554;13.590;2023-05-20T07:10:04;14.20;99.90
15262;DHT22;7733;51.554;13.590;2023-05-20T07:12:31;14.20;99.90
15262;DHT22;7733;51.554;13.590;2023-05-20T07:14:58;14.10;99.90
15262;DHT22;7733;51.554;13.590;2023-05-20T07:17:24;14.20;99.90
15262;DHT22;7733;51.554;13.590;2023-05-20T07:19:50;14.10;99.90
15262;DHT22;7733;51.554;13.590;2023-05-20T07:22:16;14.10;99.90
15262;DHT22;7733;51.554;13.590;2023-05-20T07:24:42;14.10;99.90
15262;DHT22;7733;51.554;13.590;2023-05-20T07:27:08;14.20;99.90
15262;DHT22;7733;51.554;13.590;2023-05-20T07:29:35;14.20;99.90
15262;DHT22;7733;51.554;13.590;2023-05-20T07:32:02;14.20;99.90
15262;DHT22;7733;51.554;13.590;2023-05-20T07:34:28;14.30;99.90
15262;DHT22;7733;51.554;13.590;2023-05-20T07:36:54;14.30;99.90
15262;DHT22;7733;51.554;13.590;2023-05-20T07:39:19;14.40;99.90
15262;DHT22;7733;51.554;13.590;2023-05-20T07:41:45;14.40;99.90
15262;DHT22;7733;51.554;13.590;2023-05-20T07:44:11;14.40;99.90
15262;DHT22;7733;51.554;13.590;2023-05-20T07:46:38;14.40;99.90
15262;DHT22;7733;51.554;13.590;2023-05-20T07:49:04;14.50;99.90
15262;DHT22;7733;51.554;13.590;2023-05-20T07:51:30;14.50;99.90
15262;DHT22;7733;51.554;13.590;2023-05-20T07:53:57;14.50;99.90
15262;DHT22;7733;51.554;13.590;2023-05-20T07:56:23;14.60;99.90
15262;DHT22;7733;51.554;13.590;2023-05-20T07:58:53;14.70;99.90
15262;DHT22;7733;51.554;13.590;2023-05-20T08:01:23;14.70;99.90
15262;DHT22;7733;51.554;13.590;2023-05-20T08:03:49;14.60;99.90
15262;DHT22;7733;51.554;13.590;2023-05-20T08:06:15;14.60;99.90
15262;DHT22;7733;51.554;13.590;2023-05-20T08:08:42;14.70;99.90
15262;DHT22;7733;51.554;13.590;2023-05-20T08:11:08;14.70;99.90
15262;DHT22;7733;51.554;13.590;2023-05-20T08:13:34;14.80;99.90
15262;DHT22;7733;51.554;13.590;2023-05-20T08:16:00;14.80;99.90
15262;DHT22;7733;51.554;13.590;2023-05-20T08:18:28;14.90;99.90
15262;DHT22;7733;51.554;13.590;2023-05-20T08:20:54;15.10;99.90
15262;DHT22;7733;51.554;13.590;2023-05-20T08:23:20;15.10;99.90
15262;DHT22;7733;51.554;13.590;2023-05-20T08:25:46;15.10;99.90
15262;DHT22;7733;51.554;13.590;2023-05-20T08:28:13;15.30;99.90
15262;DHT22;7733;51.554;13.590;2023-05-20T08:30:39;15.20;99.90
15262;DHT22;7733;51.554;13.590;2023-05-20T08:33:05;15.30;99.90
15262;DHT22;7733;51.554;13.590;2023-05-20T08:35:32;15.10;99.90
15262;DHT22;7733;51.554;13.590;2023-05-20T08:37:58;15.20;99.90
15262;DHT22;7733;51.554;13.590;2023-05-20T08:40:25;15.30;99.90
15262;DHT22;7733;51.554;13.590;2023-05-20T08:42:51;15.40;99.90
15262;DHT22;7733;51.554;13.590;2023-05-20T08:45:19;15.40;99.90
15262;DHT22;7733;51.554;13.590;2023-05-20T08:47:48;15.60;99.90
15262;DHT22;7733;51.554;13.590;2023-05-20T08:50:15;15.60;99.90
15262;DHT22;7733;51.554;13.590;2023-05-20T08:52:45;15.50;99.90
15262;DHT22;7733;51.554;13.590;2023-05-20T08:55:20;15.80;99.90
15262;DHT22;7733;51.554;13.590;2023-05-20T08:57:53;16.20;99.90
15262;DHT22;7733;51.554;13.590;2023-05-20T09:00:21;16.40;99.90
15262;DHT22;7733;51.554;13.590;2023-05-20T09:02:53;16.50;99.90
15262;DHT22;7733;51.554;13.590;2023-05-20T09:05:20;16.50;99.90
15262;DHT22;7733;51.554;13.590;2023-05-20T09:07:48;16.40;99.90
15262;DHT22;7733;51.554;13.590;2023-05-20T09:10:14;16.40;99.90
15262;DHT22;7733;51.554;13.590;2023-05-20T09:12:40;16.50;99.90
15262;DHT22;7733;51.554;13.590;2023-05-20T09:15:06;16.80;99.90
15262;DHT22;7733;51.554;13.590;2023-05-20T09:17:36;16.80;99.90
15262;DHT22;7733;51.554;13.590;2023-05-20T09:20:21;16.80;99.90
15262;DHT22;7733;51.554;13.590;2023-05-20T09:22:50;16.70;99.90
15262;DHT22;7733;51.554;13.590;2023-05-20T09:25:20;16.80;99.90
15262;DHT22;7733;51.554;13.590;2023-05-20T09:27:48;16.80;99.90
15262;DHT22;7733;51.554;13.590;2023-05-20T09:30:18;17.00;99.90
15262;DHT22;7733;51.554;13.590;2023-05-20T09:32:44;17.20;99.90
15262;DHT22;7733;51.554;13.590;2023-05-20T09:35:16;17.20;99.90
15262;DHT22;7733;51.554;13.590;2023-05-20T09:37:45;17.40;99.90
15262;DHT22;7733;51.554;13.590;2023-05-20T09:40:14;17.20;99.90
15262;DHT22;7733;51.554;13.590;2023-05-20T09:45:28;17.30;99.90
15262;DHT22;7733;51.554;13.590;2023-05-20T09:47:54;17.40;99.90
15262;DHT22;7733;51.554;13.590;2023-05-20T09:50:24;17.30;99.90
15262;DHT22;7733;51.554;13.590;2023-05-20T09:52:51;17.20;99.90
15262;DHT22;7733;51.554;13.590;2023-05-20T09:55:20;17.30;99.90
15262;DHT22;7733;51.554;13.590;2023-05-20T09:57:47;17.30;99.90
15262;DHT22;7733;51.554;13.590;2023-05-20T10:00:13;17.30;99.90
15262;DHT22;7733;51.554;13.590;2023-05-20T10:02:51;17.40;99.90
15262;DHT22;7733;51.554;13.590;2023-05-20T10:05:22;17.50;99.90
15262;DHT22;7733;51.554;13.590;2023-05-20T10:17:02;17.40;99.90
15262;DHT22;7733;51.554;13.590;2023-05-20T10:19:35;17.40;99.90
15262;DHT22;7733;51.554;13.590;2023-05-20T10:22:05;17.50;99.90
15262;DHT22;7733;51.554;13.590;2023-05-20T10:24:37;17.60;99.90
15262;DHT22;7733;51.554;13.590;2023-05-20T10:27:12;17.70;99.90
15262;DHT22;7733;51.554;13.590;2023-05-20T10:29:50;17.80;99.90
15262;DHT22;7733;51.554;13.590;2023-05-20T10:32:27;17.80;99.90
15262;DHT22;7733;51.554;13.590;2023-05-20T10:34:58;17.90;99.90
15262;DHT22;7733;51.554;13.590;2023-05-20T10:37:30;17.80;99.90
15262;DHT22;7733;51.554;13.590;2023-05-20T10:42:33;18.40;99.90
15262;DHT22;7733;51.554;13.590;2023-05-20T10:44:59;18.90;99.90
15262;DHT22;7733;51.554;13.590;2023-05-20T10:47:25;18.90;99.90
15262;DHT22;7733;51.554;13.590;2023-05-20T10:49:51;18.90;99.90
15262;DHT22;7733;51.554;13.590;2023-05-20T10:52:17;19.00;99.90
15262;DHT22;7733;51.554;13.590;2023-05-20T10:54:53;19.30;99.90
15262;DHT22;7733;51.554;13.590;2023-05-20T10:57:21;19.40;99.90
15262;DHT22;7733;51.554;13.590;2023-05-20T10:59:48;19.60;99.90
15262;DHT22;7733;51.554;13.590;2023-05-20T11:02:15;20.00;99.90
15262;DHT22;7733;51.554;13.590;2023-05-20T11:04:42;19.90;99.90
15262;DHT22;7733;51.554;13.590;2023-05-20T11:07:09;19.70;99.90
15262;DHT22;7733;51.554;13.590;2023-05-20T11:09:35;20.00;99.90
15262;DHT22;7733;51.554;13.590;2023-05-20T11:12:05;20.30;99.90
15262;DHT22;7733;51.554;13.590;2023-05-20T11:14:31;20.40;99.90
15262;DHT22;7733;51.554;13.590;2023-05-20T11:16:57;20.30;99.90
15262;DHT22;7733;51.554;13.590;2023-05-20T11:19:27;20.40;99.90
15262;DHT22;7733;51.554;13.590;2023-05-20T11:21:53;20.30;99.90
15262;DHT22;7733;51.554;13.590;2023-05-20T11:24:26;20.30;99.90
15262;DHT22;7733;51.554;13.590;2023-05-20T11:26:56;20.30;99.90
15262;DHT22;7733;51.554;13.590;2023-05-20T11:29:22;20.70;99.90
15262;DHT22;7733;51.554;13.590;2023-05-20T11:31:50;20.30;99.90
15262;DHT22;7733;51.554;13.590;2023-05-20T11:34:20;20.20;99.90
15262;DHT22;7733;51.554;13.590;2023-05-20T11:36:47;20.30;99.90
15262;DHT22;7733;51.554;13.590;2023-05-20T11:39:16;20.60;99.90
15262;DHT22;7733;51.554;13.590;2023-05-20T11:41:42;20.70;99.90
15262;DHT22;7733;51.554;13.590;2023-05-20T11:44:11;20.90;99.90
15262;DHT22;7733;51.554;13.590;2023-05-20T11:46:41;21.10;99.90
15262;DHT22;7733;51.554;13.590;2023-05-20T11:49:08;20.80;99.90
15262;DHT22;7733;51.554;13.590;2023-05-20T11:51:34;20.90;99.90
15262;DHT22;7733;51.554;13.590;2023-05-20T11:54:03;21.00;99.90
15262;DHT22;7733;51.554;13.590;2023-05-20T11:56:34;20.90;99.90
15262;DHT22;7733;51.554;13.590;2023-05-20T11:59:04;20.90;99.90
15262;DHT22;7733;51.554;13.590;2023-05-20T12:01:38;21.30;99.90
15262;DHT22;7733;51.554;13.590;2023-05-20T12:04:10;21.10;99.90
15262;DHT22;7733;51.554;13.590;2023-05-20T12:06:40;21.20;99.90
15262;DHT22;7733;51.554;13.590;2023-05-20T12:09:07;21.50;99.90
15262;DHT22;7733;51.554;13.590;2023-05-20T12:11:37;21.40;99.90
15262;DHT22;7733;51.554;13.590;2023-05-20T12:14:05;21.50;99.90
15262;DHT22;7733;51.554;13.590;2023-05-20T12:16:33;21.70;99.90
15262;DHT22;7733;51.554;13.590;2023-05-20T12:18:59;21.80;99.90
15262;DHT22;7733;51.554;13.590;2023-05-20T12:21:25;21.50;99.90
15262;DHT22;7733;51.554;13.590;2023-05-20T12:23:53;21.60;99.90
15262;DHT22;7733;51.554;13.590;2023-05-20T12:26:25;21.70;99.90
15262;DHT22;7733;51.554;13.590;2023-05-20T12:28:52;21.70;99.90
15262;DHT22;7733;51.554;13.590;2023-05-20T12:31:19;21.60;99.90
15262;DHT22;7733;51.554;13.590;2023-05-20T12:33:45;21.90;99.60
15262;DHT22;7733;51.554;13.590;2023-05-20T12:36:12;22.20;99.40
15262;DHT22;7733;51.554;13.590;2023-05-20T12:38:39;22.20;98.90
15262;DHT22;7733;51.554;13.590;2023-05-20T12:41:04;22.10;98.40
15262;DHT22;7733;51.554;13.590;2023-05-20T12:43:30;22.20;98.20
15262;DHT22;7733;51.554;13.590;2023-05-20T12:45:56;22.50;98.00
15262;DHT22;7733;51.554;13.590;2023-05-20T12:48:22;22.70;97.50
15262;DHT22;7733;51.554;13.590;2023-05-20T12:50:47;22.40;97.10
15262;DHT22;7733;51.554;13.590;2023-05-20T12:53:13;22.20;97.40
15262;DHT22;7733;51.554;13.590;2023-05-20T12:55:39;22.10;98.00
15262;DHT22;7733;51.554;13.590;2023-05-20T12:58:05;22.40;97.70
15262;DHT22;7733;51.554;13.590;2023-05-20T13:00:33;22.80;97.80
15262;DHT22;7733;51.554;13.590;2023-05-20T13:02:59;22.70;97.30
15262;DHT22;7733;51.554;13.590;2023-05-20T13:05:25;22.80;96.70
15262;DHT22;7733;51.554;13.590;2023-05-20T13:07:51;22.60;96.80
15262;DHT22;7733;51.554;13.590;2023-05-20T13:10:17;22.80;96.50
15262;DHT22;7733;51.554;13.590;2023-05-20T13:12:44;22.60;96.60
15262;DHT22;7733;51.554;13.590;2023-05-20T13:15:12;22.60;96.70
15262;DHT22;7733;51.554;13.590;2023-05-20T13:17:39;22.80;96.70
15262;DHT22;7733;51.554;13.590;2023-05-20T13:20:07;23.00;96.10
15262;DHT22;7733;51.554;13.590;2023-05-20T13:22:33;23.00;96.20
15262;DHT22;7733;51.554;13.590;2023-05-20T13:24:59;23.00;95.60
15262;DHT22;7733;51.554;13.590;2023-05-20T13:27:25;23.10;96.20
15262;DHT22;7733;51.554;13.590;2023-05-20T13:29:51;22.90;95.70
15262;DHT22;7733;51.554;13.590;2023-05-20T13:32:17;23.00;95.70
15262;DHT22;7733;51.554;13.590;2023-05-20T13:34:43;22.90;96.00
15262;DHT22;7733;51.554;13.590;2023-05-20T13:37:09;23.30;96.20
15262;DHT22;7733;51.554;13.590;2023-05-20T13:39:35;23.30;95.30
15262;DHT22;7733;51.554;13.590;2023-05-20T13:42:01;22.90;95.90
15262;DHT22;7733;51.554;13.590;2023-05-20T13:44:27;22.70;95.30
15262;DHT22;7733;51.554;13.590;2023-05-20T13:46:52;22.70;95.30
15262;DHT22;7733;51.554;13.590;2023-05-20T13:49:20;22.80;95.70
15262;DHT22;7733;51.554;13.590;2023-05-20T13:51:46;22.80;95.50
15262;DHT22;7733;51.554;13.590;2023-05-20T13:54:11;22.80;95.50
15262;DHT22;7733;51.554;13.590;2023-05-20T13:56:37;22.60;95.30
15262;DHT22;7733;51.554;13.590;2023-05-20T13:59:03;22.60;95.60
15262;DHT22;7733;51.554;13.590;2023-05-20T14:01:32;22.30;96.00
15262;DHT22;7733;51.554;13.590;2023-05-20T14:03:58;22.20;96.50
15262;DHT22;7733;51.554;13.590;2023-05-20T14:06:25;22.50;96.30
15262;DHT22;7733;51.554;13.590;2023-05-20T14:08:53;22.30;96.40
15262;DHT22;7733;51.554;13.590;2023-05-20T14:11:20;22.10;96.70
15262;DHT22;7733;51.554;13.590;2023-05-20T14:13:46;22.60;96.70
15262;DHT22;7733;51.554;13.590;2023-05-20T14:16:12;22.70;95.90
15262;DHT22;7733;51.554;13.590;2023-05-20T14:18:38;22.60;96.20
15262;DHT22;7733;51.554;13.590;2023-05-20T14:21:03;22.40;95.80
15262;DHT22;7733;51.554;13.590;2023-05-20T14:23:29;22.30;96.40
15262;DHT22;7733;51.554;13.590;2023-05-20T14:25:55;22.60;96.40
15262;DHT22;7733;51.554;13.590;2023-05-20T14:28:21;22.90;96.20
15262;DHT22;7733;51.554;13.590;2023-05-20T14:30:46;22.80;95.50
15262;DHT22;7733;51.554;13.590;2023-05-20T14:33:12;22.80;95.60
15262;DHT22;7733;51.554;13.590;2023-05-20T14:35:38;22.70;95.50
15262;DHT22;7733;51.554;13.590;2023-05-20T14:38:04;22.90;95.50
15262;DHT22;7733;51.554;13.590;2023-05-20T14:40:30;22.80;95.60
15262;DHT22;7733;51.554;13.590;2023-05-20T14:42:55;22.80;95.50
15262;DHT22;7733;51.554;13.590;2023-05-20T14:45:21;23.20;95.40
15262;DHT22;7733;51.554;13.590;2023-05-20T14:47:47;23.30;95.00
15262;DHT22;7733;51.554;13.590;2023-05-20T14:50:12;23.10;94.90
15262;DHT22;7733;51.554;13.590;2023-05-20T14:52:38;23.30;94.80
15262;DHT22;7733;51.554;13.590;2023-05-20T14:55:04;23.40;94.40
15262;DHT22;7733;51.554;13.590;2023-05-20T14:57:30;23.50;94.70
15262;DHT22;7733;51.554;13.590;2023-05-20T14:59:56;23.40;94.60
15262;DHT22;7733;51.554;13.590;2023-05-20T15:02:21;23.40;94.80
15262;DHT22;7733;51.554;13.590;2023-05-20T15:04:47;23.30;94.50
15262;DHT22;7733;51.554;13.590;2023-05-20T15:07:13;23.20;94.70
15262;DHT22;7733;51.554;13.590;2023-05-20T15:09:39;23.00;94.70
15262;DHT22;7733;51.554;13.590;2023-05-20T15:12:06;23.00;95.00
15262;DHT22;7733;51.554;13.590;2023-05-20T15:14:32;22.80;94.80
15262;DHT22;7733;51.554;13.590;2023-05-20T15:16:57;22.90;94.70
15262;DHT22;7733;51.554;13.590;2023-05-20T15:19:23;22.60;94.90
15262;DHT22;7733;51.554;13.590;2023-05-20T15:21:49;22.40;95.40
15262;DHT22;7733;51.554;13.590;2023-05-20T15:24:17;22.50;95.20
15262;DHT22;7733;51.554;13.590;2023-05-20T15:26:43;22.30;95.60
15262;DHT22;7733;51.554;13.590;2023-05-20T15:29:09;22.00;95.70
15262;DHT22;7733;51.554;13.590;2023-05-20T15:31:34;22.00;96.00
15262;DHT22;7733;51.554;13.590;2023-05-20T15:34:00;22.00;95.80
15262;DHT22;7733;51.554;13.590;2023-05-20T15:36:26;22.10;96.20
15262;DHT22;7733;51.554;13.590;2023-05-20T15:38:52;21.90;96.50
15262;DHT22;7733;51.554;13.590;2023-05-20T15:41:18;21.70;96.60